Time;durP1;ratioP1;P1;durP2;ratioP2;P2;SDS_P1;SDS_P2;PMS_P1;PMS_P2;Temp;Humidity;BMP_temperature;BMP_pressure;BME280_temperature;BME280_humidity;BME280_pressure;Samples;Min_cycle;Max_cycle;Signal;HPM_P1;HPM_P2
2022/07/30 00:01:28;;;;;;;;;;;18.30;99.90;;;;;;4594007;19;19925;-33
2022/07/30 00:02:59;;;;;;;;;;;18.30;99.90;;;;;;4594179;19;19919;-33
2022/07/30 00:04:31;;;;;;;;;;;18.30;99.90;;;;;;4591748;19;19930;-33
2022/07/30 00:06:02;;;;;;;;;;;18.30;99.90;;;;;;4591160;19;20357;-33
2022/07/30 00:07:34;;;;;;;;;;;18.30;99.90;;;;;;4593617;19;19921;-33
2022/07/30 00:09:05;;;;;;;;;;;18.30;99.90;;;;;;4593038;19;19918;-32
2022/07/30 00:10:36;;;;;;;;;;;18.30;99.90;;;;;;4593620;19;19914;-32
2022/07/30 00:12:07;;;;;;;;;;;18.30;99.90;;;;;;4593694;19;19923;-33
2022/07/30 00:13:38;;;;;;;;;;;18.30;99.90;;;;;;4594509;19;19914;-32
2022/07/30 00:15:09;;;;;;;;;;;18.30;99.90;;;;;;4592714;19;19918;-33
2022/07/30 00:16:40;;;;;;;;;;;18.20;99.90;;;;;;4589738;19;20313;-32
2022/07/30 00:18:11;;;;;;;;;;;18.20;99.90;;;;;;4592361;19;19937;-34
2022/07/30 00:19:42;;;;;;;;;;;18.20;99.90;;;;;;4592917;19;20290;-31
2022/07/30 00:21:13;;;;;;;;;;;18.20;99.90;;;;;;4592981;19;19914;-32
2022/07/30 00:22:44;;;;;;;;;;;18.20;99.90;;;;;;4593516;19;19919;-33
2022/07/30 00:24:15;;;;;;;;;;;18.20;99.90;;;;;;4591376;19;20329;-32
2022/07/30 00:25:46;;;;;;;;;;;18.20;99.90;;;;;;4592514;19;19914;-33
2022/07/30 00:27:17;;;;;;;;;;;18.20;99.90;;;;;;4591831;19;19921;-32
2022/07/30 00:28:48;;;;;;;;;;;18.20;99.90;;;;;;4592814;19;20325;-33
2022/07/30 00:30:19;;;;;;;;;;;18.20;99.90;;;;;;4594205;19;19950;-32
2022/07/30 00:31:50;;;;;;;;;;;18.20;99.90;;;;;;4594256;19;19914;-33
2022/07/30 00:33:21;;;;;;;;;;;18.20;99.90;;;;;;4593340;19;19960;-32
2022/07/30 00:34:52;;;;;;;;;;;18.20;99.90;;;;;;4591673;19;19923;-32
2022/07/30 00:36:23;;;;;;;;;;;18.20;99.90;;;;;;4592878;19;20341;-32
2022/07/30 00:37:54;;;;;;;;;;;18.20;99.90;;;;;;4593199;19;20356;-33
2022/07/30 00:39:28;;;;;;;;;;;18.20;99.90;;;;;;4593350;19;20247;-33
2022/07/30 00:40:59;;;;;;;;;;;18.20;99.90;;;;;;4593568;19;19908;-34
2022/07/30 00:42:36;;;;;;;;;;;18.20;99.90;;;;;;4593699;19;20276;-35
2022/07/30 00:44:07;;;;;;;;;;;18.20;99.90;;;;;;4591810;19;19955;-33
2022/07/30 00:45:38;;;;;;;;;;;18.20;99.90;;;;;;4591315;19;19915;-33
2022/07/30 00:47:09;;;;;;;;;;;18.20;99.90;;;;;;4593390;19;19915;-32
2022/07/30 00:48:40;;;;;;;;;;;18.20;99.90;;;;;;4592585;19;19994;-33
2022/07/30 00:50:12;;;;;;;;;;;18.20;99.90;;;;;;4590776;19;19914;-32
2022/07/30 00:51:43;;;;;;;;;;;18.20;99.90;;;;;;4591697;19;20318;-33
2022/07/30 00:53:14;;;;;;;;;;;18.20;99.90;;;;;;4593073;19;19925;-34
2022/07/30 00:54:45;;;;;;;;;;;18.20;99.90;;;;;;4592627;19;19970;-32
2022/07/30 00:56:16;;;;;;;;;;;18.20;99.90;;;;;;4591597;19;19947;-32
2022/07/30 00:57:47;;;;;;;;;;;18.20;99.90;;;;;;4593123;19;19914;-32
2022/07/30 00:59:18;;;;;;;;;;;18.20;99.90;;;;;;4593062;19;20328;-32
2022/07/30 01:00:49;;;;;;;;;;;18.20;99.90;;;;;;4592553;19;19919;-33
2022/07/30 01:02:20;;;;;;;;;;;18.20;99.90;;;;;;4592845;19;20307;-33
2022/07/30 01:03:51;;;;;;;;;;;18.20;99.90;;;;;;4593166;19;20301;-33
2022/07/30 01:05:22;;;;;;;;;;;18.10;99.90;;;;;;4592361;19;19922;-34
2022/07/30 01:06:53;;;;;;;;;;;18.10;99.90;;;;;;4590747;19;20267;-33
2022/07/30 01:08:23;;;;;;;;;;;18.10;99.90;;;;;;4592972;19;19911;-32
2022/07/30 01:09:55;;;;;;;;;;;18.10;99.90;;;;;;4593301;19;19987;-32
2022/07/30 01:11:27;;;;;;;;;;;18.10;99.90;;;;;;4593426;19;19915;-33
2022/07/30 01:12:58;;;;;;;;;;;18.10;99.90;;;;;;4591717;19;19925;-34
2022/07/30 01:14:29;;;;;;;;;;;18.10;99.90;;;;;;4592510;19;19919;-35
2022/07/30 01:16:00;;;;;;;;;;;18.10;99.90;;;;;;4591890;19;19911;-33
2022/07/30 01:17:31;;;;;;;;;;;18.10;99.90;;;;;;4591695;19;19938;-34
2022/07/30 01:20:58;;;;;;;;;;;18.10;99.90;;;;;;4591135;19;19949;-32
2022/07/30 01:22:58;;;;;;;;;;;18.10;99.90;;;;;;4591568;19;19919;-33
2022/07/30 01:24:31;;;;;;;;;;;18.10;99.90;;;;;;4591445;19;19942;-33
2022/07/30 01:26:03;;;;;;;;;;;18.00;99.90;;;;;;4590522;19;19919;-33
2022/07/30 01:27:43;;;;;;;;;;;18.00;99.90;;;;;;4590469;19;19915;-33
2022/07/30 01:29:14;;;;;;;;;;;18.00;99.90;;;;;;4591654;19;19918;-33
2022/07/30 01:30:45;;;;;;;;;;;18.00;99.90;;;;;;4592312;19;19918;-34
2022/07/30 01:32:15;;;;;;;;;;;18.00;99.90;;;;;;4591734;19;19974;-35
2022/07/30 01:33:47;;;;;;;;;;;18.00;99.90;;;;;;4589783;19;20022;-33
2022/07/30 01:35:18;;;;;;;;;;;18.00;99.90;;;;;;4590633;19;19990;-33
2022/07/30 01:36:49;;;;;;;;;;;18.00;99.90;;;;;;4592555;19;20321;-33
2022/07/30 01:38:21;;;;;;;;;;;18.00;99.90;;;;;;4591861;19;19941;-32
2022/07/30 01:39:53;;;;;;;;;;;18.00;99.90;;;;;;4592128;19;19919;-33
2022/07/30 01:41:24;;;;;;;;;;;18.00;99.90;;;;;;4591375;19;19918;-33
2022/07/30 01:42:56;;;;;;;;;;;18.00;99.90;;;;;;4591202;19;19918;-33
2022/07/30 01:44:27;;;;;;;;;;;18.00;99.90;;;;;;4591268;19;20350;-34
2022/07/30 01:45:59;;;;;;;;;;;18.00;99.90;;;;;;4590446;19;19915;-32
2022/07/30 01:47:30;;;;;;;;;;;18.00;99.90;;;;;;4592261;19;19911;-34
2022/07/30 01:49:01;;;;;;;;;;;18.00;99.90;;;;;;4591020;19;19947;-33
2022/07/30 01:50:32;;;;;;;;;;;18.00;99.90;;;;;;4589861;19;19917;-33
2022/07/30 01:52:03;;;;;;;;;;;18.00;99.90;;;;;;4591277;19;19975;-33
2022/07/30 01:53:35;;;;;;;;;;;18.00;99.90;;;;;;4590545;19;20246;-33
2022/07/30 01:55:07;;;;;;;;;;;18.00;99.90;;;;;;4592330;19;19919;-33
2022/07/30 01:56:38;;;;;;;;;;;17.90;99.90;;;;;;4590787;19;19911;-33
2022/07/30 01:58:11;;;;;;;;;;;18.00;99.90;;;;;;4590749;19;20248;-34
2022/07/30 01:59:42;;;;;;;;;;;17.90;99.90;;;;;;4591102;19;19926;-33
2022/07/30 02:01:13;;;;;;;;;;;17.90;99.90;;;;;;4588905;19;20352;-33
2022/07/30 02:02:44;;;;;;;;;;;17.90;99.90;;;;;;4591718;19;19915;-33
2022/07/30 02:04:16;;;;;;;;;;;17.90;99.90;;;;;;4591956;19;20307;-33
2022/07/30 02:05:51;;;;;;;;;;;17.90;99.90;;;;;;4589724;19;19915;-33
2022/07/30 02:07:23;;;;;;;;;;;17.90;99.90;;;;;;4590634;19;19915;-33
2022/07/30 02:08:54;;;;;;;;;;;17.90;99.90;;;;;;4590707;19;19919;-33
2022/07/30 02:10:27;;;;;;;;;;;17.80;99.90;;;;;;4589626;19;19986;-34
2022/07/30 02:13:49;;;;;;;;;;;17.80;99.90;;;;;;4590579;19;19932;-35
2022/07/30 02:15:24;;;;;;;;;;;17.80;99.90;;;;;;4589018;19;19923;-32
2022/07/30 02:16:57;;;;;;;;;;;17.80;99.90;;;;;;4591015;19;19928;-33
2022/07/30 02:18:46;;;;;;;;;;;17.80;99.90;;;;;;4590242;19;19910;-33
2022/07/30 02:20:17;;;;;;;;;;;17.80;99.90;;;;;;4590300;19;20315;-32
2022/07/30 02:21:58;;;;;;;;;;;17.80;99.90;;;;;;4590347;19;19922;-33
2022/07/30 02:23:30;;;;;;;;;;;17.80;99.90;;;;;;4590046;19;19915;-35
2022/07/30 02:25:00;;;;;;;;;;;17.80;99.90;;;;;;4590720;19;19911;-32
2022/07/30 02:26:31;;;;;;;;;;;17.80;99.90;;;;;;4589888;19;19936;-33
2022/07/30 02:28:04;;;;;;;;;;;17.80;99.90;;;;;;4588378;19;19955;-34
2022/07/30 02:29:35;;;;;;;;;;;17.80;99.90;;;;;;4589692;19;19915;-34
2022/07/30 02:31:07;;;;;;;;;;;17.80;99.90;;;;;;4591567;19;19915;-33
2022/07/30 02:32:38;;;;;;;;;;;17.80;99.90;;;;;;4590957;19;20083;-35
2022/07/30 02:34:09;;;;;;;;;;;17.70;99.90;;;;;;4589784;19;20328;-33
2022/07/30 02:35:40;;;;;;;;;;;17.80;99.90;;;;;;4586749;19;19919;-32
2022/07/30 02:37:11;;;;;;;;;;;17.80;99.90;;;;;;4587877;19;20359;-35
2022/07/30 02:38:42;;;;;;;;;;;17.80;99.90;;;;;;4588046;19;19919;-32
2022/07/30 02:40:13;;;;;;;;;;;17.80;99.90;;;;;;4587863;19;19919;-34
2022/07/30 02:41:44;;;;;;;;;;;17.70;99.90;;;;;;4587918;19;19982;-33
2022/07/30 02:43:16;;;;;;;;;;;17.70;99.90;;;;;;4589393;19;19937;-33
2022/07/30 02:44:47;;;;;;;;;;;17.70;99.90;;;;;;4589924;19;19926;-33
2022/07/30 02:46:18;;;;;;;;;;;17.70;99.90;;;;;;4590400;19;19927;-33
2022/07/30 02:47:50;;;;;;;;;;;17.70;99.90;;;;;;4589233;19;19918;-33
2022/07/30 02:49:21;;;;;;;;;;;17.80;99.90;;;;;;4589194;19;19923;-33
2022/07/30 02:50:52;;;;;;;;;;;17.70;99.90;;;;;;4587603;19;19958;-32
2022/07/30 02:52:23;;;;;;;;;;;17.70;99.90;;;;;;4590936;19;20274;-33
2022/07/30 02:53:54;;;;;;;;;;;17.70;99.90;;;;;;4589906;19;19911;-34
2022/07/30 02:55:26;;;;;;;;;;;17.70;99.90;;;;;;4589418;19;20340;-34
2022/07/30 02:56:57;;;;;;;;;;;17.70;99.90;;;;;;4590159;19;19950;-33
2022/07/30 02:58:28;;;;;;;;;;;17.70;99.90;;;;;;4590248;19;19998;-33
2022/07/30 02:59:59;;;;;;;;;;;17.70;99.90;;;;;;4589962;19;19911;-32
2022/07/30 03:01:30;;;;;;;;;;;17.70;99.90;;;;;;4589624;19;20260;-33
2022/07/30 03:03:01;;;;;;;;;;;17.70;99.90;;;;;;4590106;19;19922;-33
2022/07/30 03:04:32;;;;;;;;;;;17.70;99.90;;;;;;4589634;19;19926;-34
2022/07/30 03:06:04;;;;;;;;;;;17.70;99.90;;;;;;4587764;19;19994;-33
2022/07/30 03:07:35;;;;;;;;;;;17.70;99.90;;;;;;4586332;19;20014;-33
2022/07/30 03:09:06;;;;;;;;;;;17.70;99.90;;;;;;4586097;19;19914;-33
2022/07/30 03:10:37;;;;;;;;;;;17.70;99.90;;;;;;4588730;19;19922;-34
2022/07/30 03:12:10;;;;;;;;;;;17.70;99.90;;;;;;4589662;19;19933;-33
2022/07/30 03:13:41;;;;;;;;;;;17.70;99.90;;;;;;4590062;19;19934;-32
2022/07/30 03:15:12;;;;;;;;;;;17.70;99.90;;;;;;4589492;19;19915;-33
2022/07/30 03:16:44;;;;;;;;;;;17.60;99.90;;;;;;4589859;19;19914;-33
2022/07/30 03:18:16;;;;;;;;;;;17.70;99.90;;;;;;4589254;19;19918;-33
2022/07/30 03:19:47;;;;;;;;;;;17.70;99.90;;;;;;4590227;19;19915;-33
2022/07/30 03:21:18;;;;;;;;;;;17.70;99.90;;;;;;4590995;19;19922;-32
2022/07/30 03:22:49;;;;;;;;;;;17.70;99.90;;;;;;4589434;19;19915;-35
2022/07/30 03:24:21;;;;;;;;;;;17.70;99.90;;;;;;4589216;19;19978;-32
2022/07/30 03:26:01;;;;;;;;;;;17.60;99.90;;;;;;4589950;19;20368;-33
2022/07/30 03:27:32;;;;;;;;;;;17.60;99.90;;;;;;4588615;19;19926;-33
2022/07/30 03:29:03;;;;;;;;;;;17.70;99.90;;;;;;4587385;19;19919;-32
2022/07/30 03:30:34;;;;;;;;;;;17.70;99.90;;;;;;4587217;19;19941;-32
2022/07/30 03:32:05;;;;;;;;;;;17.60;99.90;;;;;;4586904;19;19999;-34
2022/07/30 03:33:36;;;;;;;;;;;17.60;99.90;;;;;;4587581;19;19919;-34
2022/07/30 03:35:07;;;;;;;;;;;17.60;99.90;;;;;;4588150;19;20248;-33
2022/07/30 03:36:40;;;;;;;;;;;17.60;99.90;;;;;;4587005;19;19982;-33
2022/07/30 03:38:13;;;;;;;;;;;17.60;99.90;;;;;;4587045;19;19929;-34
2022/07/30 03:39:44;;;;;;;;;;;17.60;99.90;;;;;;4591193;19;19978;-35
2022/07/30 03:41:15;;;;;;;;;;;17.70;99.90;;;;;;4594288;19;19919;-33
2022/07/30 03:42:46;;;;;;;;;;;17.70;99.90;;;;;;4594975;19;19927;-33
2022/07/30 03:44:17;;;;;;;;;;;17.70;99.90;;;;;;4594950;19;19918;-32
2022/07/30 03:45:48;;;;;;;;;;;17.60;99.90;;;;;;4594514;19;19919;-33
2022/07/30 03:47:19;;;;;;;;;;;17.70;99.90;;;;;;4594343;19;19982;-32
2022/07/30 03:48:51;;;;;;;;;;;17.70;99.90;;;;;;4593743;19;19986;-33
2022/07/30 03:50:22;;;;;;;;;;;17.60;99.90;;;;;;4592465;19;19922;-34
2022/07/30 03:51:53;;;;;;;;;;;17.60;99.90;;;;;;4594903;19;20252;-35
2022/07/30 03:53:26;;;;;;;;;;;17.60;99.90;;;;;;4594319;19;20329;-33
2022/07/30 03:54:57;;;;;;;;;;;17.70;99.90;;;;;;4593683;19;19933;-32
2022/07/30 03:56:28;;;;;;;;;;;17.60;99.90;;;;;;4592610;19;19915;-33
2022/07/30 03:57:59;;;;;;;;;;;17.70;99.90;;;;;;4593983;19;19926;-33
2022/07/30 03:59:30;;;;;;;;;;;17.70;99.90;;;;;;4594306;19;19925;-33
2022/07/30 04:01:01;;;;;;;;;;;17.70;99.90;;;;;;4594579;19;19979;-33
2022/07/30 04:02:39;;;;;;;;;;;17.70;99.90;;;;;;4594611;19;19918;-35
2022/07/30 04:04:10;;;;;;;;;;;17.70;99.90;;;;;;4594103;19;19919;-32
2022/07/30 04:05:41;;;;;;;;;;;17.70;99.90;;;;;;4594225;19;20335;-35
2022/07/30 04:07:12;;;;;;;;;;;17.70;99.90;;;;;;4594342;19;20301;-33
2022/07/30 04:08:43;;;;;;;;;;;17.70;99.90;;;;;;4593448;19;19943;-32
2022/07/30 04:10:14;;;;;;;;;;;17.70;99.90;;;;;;4593473;19;20272;-32
2022/07/30 04:11:45;;;;;;;;;;;17.70;99.90;;;;;;4591475;19;19925;-35
2022/07/30 04:13:16;;;;;;;;;;;17.70;99.90;;;;;;4591912;19;19918;-33
2022/07/30 04:14:47;;;;;;;;;;;17.70;99.90;;;;;;4593117;19;19921;-33
2022/07/30 04:16:38;;;;;;;;;;;17.70;99.90;;;;;;4594256;19;19948;-33
2022/07/30 04:18:09;;;;;;;;;;;17.70;99.90;;;;;;4590162;19;20361;-34
2022/07/30 04:19:42;;;;;;;;;;;17.70;99.90;;;;;;4592837;19;19934;-34
2022/07/30 04:21:14;;;;;;;;;;;17.70;99.90;;;;;;4592251;19;19935;-32
2022/07/30 04:22:44;;;;;;;;;;;17.80;99.90;;;;;;4591662;19;19915;-33
2022/07/30 04:24:15;;;;;;;;;;;17.80;99.90;;;;;;4591879;19;19925;-33
2022/07/30 04:25:47;;;;;;;;;;;17.80;99.90;;;;;;4590609;19;19922;-33
2022/07/30 04:27:18;;;;;;;;;;;17.80;99.90;;;;;;4591228;19;19914;-33
2022/07/30 04:28:49;;;;;;;;;;;17.80;99.90;;;;;;4590519;19;20380;-33
2022/07/30 04:30:19;;;;;;;;;;;17.80;99.90;;;;;;4590293;19;19922;-32
2022/07/30 04:31:52;;;;;;;;;;;17.80;99.90;;;;;;4589956;19;19935;-32
2022/07/30 04:33:23;;;;;;;;;;;17.80;99.90;;;;;;4590524;19;19919;-35
2022/07/30 04:34:54;;;;;;;;;;;17.80;99.90;;;;;;4589980;19;20277;-32
2022/07/30 04:36:25;;;;;;;;;;;17.90;99.90;;;;;;4589765;19;19918;-33
2022/07/30 04:37:56;;;;;;;;;;;17.90;99.90;;;;;;4590003;19;19929;-33
2022/07/30 04:39:27;;;;;;;;;;;17.90;99.90;;;;;;4592098;19;19914;-34
2022/07/30 04:40:58;;;;;;;;;;;17.90;99.90;;;;;;4591784;19;20345;-33
2022/07/30 04:42:29;;;;;;;;;;;17.90;99.90;;;;;;4591329;19;19918;-33
2022/07/30 04:44:00;;;;;;;;;;;18.00;99.90;;;;;;4591187;19;19911;-33
2022/07/30 04:45:31;;;;;;;;;;;18.00;99.90;;;;;;4590603;19;20288;-33
2022/07/30 04:47:02;;;;;;;;;;;18.00;99.90;;;;;;4588882;19;19918;-33
2022/07/30 04:48:33;;;;;;;;;;;18.00;99.90;;;;;;4589697;19;19949;-33
2022/07/30 04:50:05;;;;;;;;;;;18.00;99.90;;;;;;4588292;19;19939;-35
2022/07/30 04:51:36;;;;;;;;;;;18.00;99.90;;;;;;4587611;19;19930;-32
2022/07/30 04:53:07;;;;;;;;;;;18.00;99.90;;;;;;4591880;19;20340;-33
2022/07/30 04:54:39;;;;;;;;;;;18.00;99.90;;;;;;4591963;19;20499;-33
2022/07/30 04:56:10;;;;;;;;;;;18.00;99.90;;;;;;4592760;19;19974;-35
2022/07/30 04:57:41;;;;;;;;;;;18.00;99.90;;;;;;4593195;19;19930;-35
2022/07/30 04:59:12;;;;;;;;;;;18.10;99.90;;;;;;4591606;19;20039;-33
2022/07/30 05:00:43;;;;;;;;;;;18.30;99.90;;;;;;4591920;19;19922;-33
2022/07/30 05:02:14;;;;;;;;;;;18.50;99.90;;;;;;4591220;19;19966;-33
2022/07/30 05:03:45;;;;;;;;;;;18.70;99.90;;;;;;4591094;19;19929;-33
2022/07/30 05:05:16;;;;;;;;;;;18.90;99.90;;;;;;4591380;19;19915;-33
2022/07/30 05:06:47;;;;;;;;;;;19.10;99.90;;;;;;4589040;19;19918;-34
2022/07/30 05:08:18;;;;;;;;;;;19.20;99.90;;;;;;4593097;19;19923;-32
2022/07/30 05:09:49;;;;;;;;;;;19.40;99.90;;;;;;4593439;19;19919;-34
2022/07/30 05:11:20;;;;;;;;;;;19.50;99.90;;;;;;4592911;19;19935;-34
2022/07/30 05:12:51;;;;;;;;;;;19.60;99.90;;;;;;4591296;19;20249;-33
2022/07/30 05:14:22;;;;;;;;;;;19.70;99.90;;;;;;4590863;19;19941;-33
2022/07/30 05:15:54;;;;;;;;;;;19.80;99.90;;;;;;4591420;19;19919;-33
2022/07/30 05:17:24;;;;;;;;;;;19.90;99.90;;;;;;4591467;19;20329;-33
2022/07/30 05:18:55;;;;;;;;;;;20.00;99.90;;;;;;4592597;19;19926;-33
2022/07/30 05:20:27;;;;;;;;;;;20.10;99.90;;;;;;4592498;19;19925;-34
2022/07/30 05:21:58;;;;;;;;;;;20.10;99.90;;;;;;4593111;19;20250;-33
2022/07/30 05:23:28;;;;;;;;;;;20.10;99.90;;;;;;4592978;19;19918;-34
2022/07/30 05:24:59;;;;;;;;;;;20.20;99.90;;;;;;4592607;19;19930;-33
2022/07/30 05:26:30;;;;;;;;;;;20.20;99.90;;;;;;4590112;19;19915;-34
2022/07/30 05:28:01;;;;;;;;;;;20.30;99.90;;;;;;4591077;19;20023;-34
2022/07/30 05:29:32;;;;;;;;;;;20.30;99.90;;;;;;4591266;19;19937;-31
2022/07/30 05:31:03;;;;;;;;;;;20.30;99.90;;;;;;4592098;19;19953;-34
2022/07/30 05:32:34;;;;;;;;;;;20.40;99.90;;;;;;4593314;19;19990;-33
2022/07/30 05:34:05;;;;;;;;;;;20.50;99.90;;;;;;4592783;19;20261;-33
2022/07/30 05:35:36;;;;;;;;;;;20.50;99.90;;;;;;4592281;19;20355;-34
2022/07/30 05:37:07;;;;;;;;;;;20.60;99.90;;;;;;4592023;19;19914;-35
2022/07/30 05:38:38;;;;;;;;;;;20.70;99.90;;;;;;4591583;19;19923;-34
2022/07/30 05:40:10;;;;;;;;;;;20.70;99.90;;;;;;4591628;19;19917;-35
2022/07/30 05:41:41;;;;;;;;;;;20.80;99.90;;;;;;4589687;19;20371;-33
2022/07/30 05:43:12;;;;;;;;;;;20.80;99.90;;;;;;4589505;19;19978;-33
2022/07/30 05:44:43;;;;;;;;;;;20.90;99.90;;;;;;4590352;19;19937;-33
2022/07/30 05:46:14;;;;;;;;;;;20.90;99.90;;;;;;4592195;19;19915;-33
2022/07/30 05:47:45;;;;;;;;;;;21.00;99.90;;;;;;4592481;19;19919;-35
2022/07/30 05:49:16;;;;;;;;;;;21.00;99.90;;;;;;4591760;19;20325;-34
2022/07/30 05:50:48;;;;;;;;;;;21.10;99.90;;;;;;4590684;19;19942;-33
2022/07/30 05:52:18;;;;;;;;;;;21.10;99.90;;;;;;4591386;19;20346;-34
2022/07/30 05:53:49;;;;;;;;;;;21.20;99.90;;;;;;4591335;19;19915;-33
2022/07/30 05:55:20;;;;;;;;;;;21.20;99.90;;;;;;4590233;19;19923;-33
2022/07/30 05:56:51;;;;;;;;;;;21.20;99.90;;;;;;4588231;19;19929;-33
2022/07/30 05:58:22;;;;;;;;;;;21.20;99.90;;;;;;4591178;19;19919;-33
2022/07/30 05:59:53;;;;;;;;;;;21.30;99.90;;;;;;4590830;19;19914;-33
2022/07/30 06:01:24;;;;;;;;;;;21.20;99.90;;;;;;4591120;19;19919;-33
2022/07/30 06:02:55;;;;;;;;;;;19.50;99.90;;;;;;4590431;19;19911;-33
2022/07/30 06:04:26;;;;;;;;;;;18.90;99.90;;;;;;4590267;19;19960;-33
2022/07/30 06:05:57;;;;;;;2.90;1.80;;;18.70;99.90;;;;;;4589209;19;19915;-32
2022/07/30 06:07:28;;;;;;;2.40;1.50;;;18.60;99.90;;;;;;4589992;19;20022;-35
2022/07/30 06:09:00;;;;;;;2.50;1.50;;;18.60;99.90;;;;;;4591699;19;20015;-32
2022/07/30 06:10:31;;;;;;;;;;;18.60;99.90;;;;;;4591934;19;19915;-33
2022/07/30 06:12:02;;;;;;;;;;;18.70;99.90;;;;;;4591490;19;19935;-32
2022/07/30 06:13:33;;;;;;;;;;;18.70;99.90;;;;;;4591367;19;20337;-32
2022/07/30 06:15:04;;;;;;;;;;;18.70;99.90;;;;;;4590792;19;19919;-33
2022/07/30 06:16:35;;;;;;;;;;;18.80;99.90;;;;;;4590333;19;19926;-34
2022/07/30 06:18:06;;;;;;;;;;;18.80;99.90;;;;;;4590215;19;20332;-34
2022/07/30 06:19:37;;;;;;;;;;;18.80;99.90;;;;;;4589474;19;19922;-32
2022/07/30 06:21:09;;;;;;;;;;;18.90;99.90;;;;;;4589348;19;19919;-33
2022/07/30 06:22:39;;;;;;;;;;;18.90;99.90;;;;;;4591316;19;20292;-34
2022/07/30 06:24:11;;;;;;;;;;;18.90;99.90;;;;;;4589188;19;19926;-32
2022/07/30 06:25:41;;;;;;;;;;;19.00;99.90;;;;;;4590574;19;19925;-33
2022/07/30 06:27:13;;;;;;;;;;;19.00;99.90;;;;;;4590538;19;19918;-33
2022/07/30 06:28:44;;;;;;;;;;;19.00;99.90;;;;;;4589133;19;19918;-32
2022/07/30 06:30:15;;;;;;;;;;;19.00;99.90;;;;;;4590284;19;19988;-33
2022/07/30 06:31:46;;;;;;;;;;;19.00;99.90;;;;;;4589687;19;19926;-32
2022/07/30 06:33:17;;;;;;;;;;;19.10;99.90;;;;;;4589857;19;19930;-32
2022/07/30 06:34:48;;;;;;;;;;;19.10;99.90;;;;;;4589753;19;20595;-33
2022/07/30 06:36:19;;;;;;;;;;;19.10;99.90;;;;;;4588333;19;19923;-34
2022/07/30 06:37:49;;;;;;;;;;;19.20;99.90;;;;;;4591640;19;20360;-33
2022/07/30 06:39:21;;;;;;;;;;;19.20;99.90;;;;;;4591842;19;19934;-32
2022/07/30 06:40:52;;;;;;;;;;;19.20;99.90;;;;;;4592043;19;19938;-33
2022/07/30 06:42:23;;;;;;;;;;;19.20;99.90;;;;;;4589725;19;19919;-34
2022/07/30 06:43:55;;;;;;;;;;;19.20;99.90;;;;;;4590041;19;19956;-32
2022/07/30 06:45:26;;;;;;;;;;;19.20;99.90;;;;;;4590074;19;19921;-32
2022/07/30 06:46:57;;;;;;;;;;;19.20;99.90;;;;;;4589346;19;19918;-33
2022/07/30 06:48:29;;;;;;;;;;;19.20;99.90;;;;;;4589188;19;19918;-33
2022/07/30 06:50:00;;;;;;;;;;;19.20;99.90;;;;;;4589560;19;19930;-33
2022/07/30 06:51:31;;;;;;;;;;;19.30;99.90;;;;;;4590251;19;19949;-32
2022/07/30 06:53:02;;;;;;;;;;;19.30;99.90;;;;;;4592046;19;20272;-33
2022/07/30 06:54:33;;;;;;;;;;;19.30;99.90;;;;;;4591093;19;20172;-33
2022/07/30 06:56:04;;;;;;;;;;;19.30;99.90;;;;;;4590768;19;19914;-33
2022/07/30 06:57:35;;;;;;;;;;;19.30;99.90;;;;;;4590962;19;19921;-33
2022/07/30 06:59:06;;;;;;;;;;;19.30;99.90;;;;;;4587781;19;19946;-33
2022/07/30 07:00:37;;;;;;;;;;;19.40;99.90;;;;;;4588563;19;19911;-33
2022/07/30 07:02:08;;;;;;;;;;;19.40;99.90;;;;;;4590563;19;19930;-34
2022/07/30 07:03:39;;;;;;;;;;;19.40;99.90;;;;;;4589120;19;20325;-34
2022/07/30 07:05:10;;;;;;;;;;;19.40;99.90;;;;;;4589243;19;19915;-33
2022/07/30 07:06:41;;;;;;;;;;;19.40;99.90;;;;;;4588250;19;19930;-34
2022/07/30 07:08:12;;;;;;;;;;;19.40;99.90;;;;;;4587937;19;19919;-34
2022/07/30 07:09:43;;;;;;;;;;;19.40;99.90;;;;;;4589462;19;19925;-33
2022/07/30 07:11:14;;;;;;;;;;;19.50;99.90;;;;;;4589414;19;19927;-33
2022/07/30 07:12:45;;;;;;;;;;;19.50;99.90;;;;;;4588500;19;20245;-33
2022/07/30 07:14:16;;;;;;;;;;;19.50;99.90;;;;;;4593224;19;19925;-33
2022/07/30 07:15:48;;;;;;;;;;;19.50;99.90;;;;;;4594924;19;20340;-32
2022/07/30 07:17:19;;;;;;;;;;;19.50;99.90;;;;;;4593606;19;19952;-33
2022/07/30 07:18:53;;;;;;;;;;;19.50;99.90;;;;;;4593252;19;19918;-33
2022/07/30 07:20:24;;;;;;;;;;;19.50;99.90;;;;;;4593566;19;19919;-34
2022/07/30 07:21:55;;;;;;;;;;;19.50;99.90;;;;;;4592668;19;19978;-33
2022/07/30 07:23:26;;;;;;;;;;;19.50;99.90;;;;;;4594416;19;19950;-33
2022/07/30 07:24:57;;;;;;;;;;;19.50;99.90;;;;;;4594333;19;19932;-33
2022/07/30 07:26:29;;;;;;;;;;;19.50;99.90;;;;;;4592258;19;19919;-33
2022/07/30 07:28:01;;;;;;;;;;;19.50;99.90;;;;;;4595384;19;19930;-33
2022/07/30 07:29:32;;;;;;;;;;;19.50;99.90;;;;;;4593862;19;19914;-35
2022/07/30 07:31:03;;;;;;;;;;;19.60;99.90;;;;;;4594017;19;19922;-33
2022/07/30 07:32:34;;;;;;;;;;;19.60;99.90;;;;;;4593820;19;20325;-33
2022/07/30 07:34:05;;;;;;;;;;;19.60;99.90;;;;;;4593340;19;19919;-33
2022/07/30 07:35:36;;;;;;;;;;;19.60;99.90;;;;;;4593787;19;20538;-32
2022/07/30 07:37:07;;;;;;;;;;;19.60;99.90;;;;;;4593423;19;19953;-35
2022/07/30 07:38:38;;;;;;;;;;;19.70;99.90;;;;;;4592052;19;19919;-33
2022/07/30 07:40:10;;;;;;;;;;;19.60;99.90;;;;;;4592023;19;19990;-33
2022/07/30 07:41:41;;;;;;;;;;;19.70;99.90;;;;;;4594699;19;19915;-33
2022/07/30 07:43:13;;;;;;;;;;;19.70;99.90;;;;;;4595009;19;19922;-33
2022/07/30 07:44:44;;;;;;;;;;;19.70;99.90;;;;;;4594250;19;19934;-33
2022/07/30 07:46:16;;;;;;;;;;;19.70;99.90;;;;;;4594247;19;19955;-33
2022/07/30 07:47:47;;;;;;;;;;;19.70;99.90;;;;;;4595183;19;19930;-33
2022/07/30 07:49:18;;;;;;;;;;;19.70;99.90;;;;;;4592741;19;19931;-33
2022/07/30 07:50:49;;;;;;;;;;;19.80;99.90;;;;;;4591768;19;19919;-33
2022/07/30 07:52:21;;;;;;;;;;;19.80;99.90;;;;;;4591885;19;20262;-33
2022/07/30 07:53:52;;;;;;;;;;;19.80;99.90;;;;;;4593177;19;19906;-34
2022/07/30 07:55:22;;;;;;;;;;;19.80;99.90;;;;;;4594185;19;20394;-33
2022/07/30 07:56:56;;;;;;;;;;;19.80;99.90;;;;;;4593902;19;19926;-34
2022/07/30 07:58:28;;;;;;;;;;;19.90;99.90;;;;;;4591912;19;19911;-33
2022/07/30 07:59:58;;;;;;;;;;;19.90;99.90;;;;;;4594326;19;19987;-33
2022/07/30 08:01:30;;;;;;;;;;;19.90;99.90;;;;;;4593186;19;19910;-33
2022/07/30 08:03:00;;;;;;;;;;;19.90;99.90;;;;;;4593434;19;19921;-35
2022/07/30 08:04:32;;;;;;;;;;;19.90;99.90;;;;;;4593909;19;19918;-34
2022/07/30 08:06:04;;;;;;;3.78;0.90;;;19.90;99.90;;;;;;4593035;19;19915;-34
2022/07/30 08:07:35;;;;;;;1.30;0.90;;;19.90;99.90;;;;;;4592017;19;20010;-34
2022/07/30 08:09:06;;;;;;;;;;;19.90;99.90;;;;;;4592171;19;19919;-33
2022/07/30 08:10:38;;;;;;;2.55;1.20;;;20.00;99.90;;;;;;4592035;19;19915;-33
2022/07/30 08:12:09;;;;;;;1.60;1.10;;;20.00;99.90;;;;;;4591218;19;20027;-34
2022/07/30 08:13:40;;;;;;;2.20;1.20;;;20.00;99.90;;;;;;4592073;19;19951;-33
2022/07/30 08:15:11;;;;;;;2.25;1.20;;;20.00;99.90;;;;;;4593931;19;19915;-35
2022/07/30 08:16:43;;;;;;;;;;;19.90;99.90;;;;;;4594683;19;19923;-33
2022/07/30 08:18:14;;;;;;;;;;;20.00;99.90;;;;;;4593592;19;19922;-34
2022/07/30 08:19:45;;;;;;;;;;;20.00;99.90;;;;;;4593364;19;20331;-33
2022/07/30 08:21:16;;;;;;;;;;;20.00;99.90;;;;;;4592009;19;19929;-34
2022/07/30 08:22:47;;;;;;;;;;;20.00;99.90;;;;;;4592934;19;19919;-33
2022/07/30 08:24:18;;;;;;;;;;;20.00;99.90;;;;;;4593146;19;19934;-33
2022/07/30 08:25:49;;;;;;;;;;;20.00;99.90;;;;;;4589062;19;20313;-33
2022/07/30 08:27:20;;;;;;;;;;;20.00;99.90;;;;;;4591909;19;20321;-33
2022/07/30 08:28:51;;;;;;;;;;;20.00;99.90;;;;;;4594521;19;19918;-34
2022/07/30 08:30:22;;;;;;;;;;;20.00;99.90;;;;;;4593910;19;19921;-34
2022/07/30 08:31:53;;;;;;;;;;;20.00;99.90;;;;;;4592141;19;20344;-32
2022/07/30 08:33:24;;;;;;;;;;;20.00;99.90;;;;;;4592853;19;20332;-33
2022/07/30 08:34:55;;;;;;;;;;;20.00;99.90;;;;;;4590906;19;19921;-32
2022/07/30 08:36:26;;;;;;;;;;;20.00;99.90;;;;;;4591097;19;19923;-34
2022/07/30 08:37:57;;;;;;;;;;;20.00;99.90;;;;;;4591473;19;19922;-33
2022/07/30 08:39:28;;;;;;;;;;;20.00;99.90;;;;;;4594705;19;19963;-34
2022/07/30 08:40:59;;;;;;;;;;;20.00;99.90;;;;;;4593969;19;20384;-33
2022/07/30 08:42:30;;;;;;;;;;;20.00;99.90;;;;;;4593248;19;20260;-35
2022/07/30 08:44:01;;;;;;;;;;;20.00;99.90;;;;;;4591928;19;19963;-33
2022/07/30 08:45:33;;;;;;;;;;;20.00;99.90;;;;;;4591528;19;19982;-33
2022/07/30 08:47:04;;;;;;;;;;;20.00;99.90;;;;;;4590299;19;19919;-34
2022/07/30 08:48:35;;;;;;;;;;;20.00;99.90;;;;;;4591401;19;20246;-33
2022/07/30 08:50:06;;;;;;;;;;;20.10;99.90;;;;;;4590664;19;19930;-33
2022/07/30 08:51:37;;;;;;;;;;;20.00;99.90;;;;;;4590226;19;19922;-33
2022/07/30 08:53:08;;;;;;;;;;;20.10;99.90;;;;;;4591891;19;19918;-33
2022/07/30 08:54:39;;;;;;;;;;;20.10;99.90;;;;;;4589820;19;19908;-34